sensor_id;sensor_type;location;lat;lon;timestamp;temperature;humidity
3690;DHT22;1861;50.240;8.596;2023-07-29T00:00:25;19.60;99.90
3690;DHT22;1861;50.240;8.596;2023-07-29T00:02:54;19.60;99.90
3690;DHT22;1861;50.240;8.596;2023-07-29T00:05:23;19.50;99.90
3690;DHT22;1861;50.240;8.596;2023-07-29T00:07:51;19.50;99.90
3690;DHT22;1861;50.240;8.596;2023-07-29T00:10:19;19.50;99.90
3690;DHT22;1861;50.240;8.596;2023-07-29T00:12:48;19.50;99.90
3690;DHT22;1861;50.240;8.596;2023-07-29T00:15:17;19.50;99.90
3690;DHT22;1861;50.240;8.596;2023-07-29T00:17:45;19.50;99.90
3690;DHT22;1861;50.240;8.596;2023-07-29T00:20:13;19.50;99.90
3690;DHT22;1861;50.240;8.596;2023-07-29T00:22:42;19.50;99.90
3690;DHT22;1861;50.240;8.596;2023-07-29T00:25:10;19.50;99.90
3690;DHT22;1861;50.240;8.596;2023-07-29T00:27:38;19.50;99.90
3690;DHT22;1861;50.240;8.596;2023-07-29T00:30:08;19.50;99.90
3690;DHT22;1861;50.240;8.596;2023-07-29T00:32:36;19.50;99.90
3690;DHT22;1861;50.240;8.596;2023-07-29T00:35:06;19.50;99.90
3690;DHT22;1861;50.240;8.596;2023-07-29T00:37:36;19.50;99.90
3690;DHT22;1861;50.240;8.596;2023-07-29T00:40:12;19.50;99.90
3690;DHT22;1861;50.240;8.596;2023-07-29T00:42:42;19.60;99.90
3690;DHT22;1861;50.240;8.596;2023-07-29T00:45:11;19.50;99.90
3690;DHT22;1861;50.240;8.596;2023-07-29T00:47:40;19.50;99.90
3690;DHT22;1861;50.240;8.596;2023-07-29T00:50:10;19.50;99.90
3690;DHT22;1861;50.240;8.596;2023-07-29T00:52:39;19.50;99.90
3690;DHT22;1861;50.240;8.596;2023-07-29T00:55:08;19.50;99.90
3690;DHT22;1861;50.240;8.596;2023-07-29T00:57:36;19.50;99.90
3690;DHT22;1861;50.240;8.596;2023-07-29T01:00:05;19.50;99.90
3690;DHT22;1861;50.240;8.596;2023-07-29T01:02:36;19.50;99.90
3690;DHT22;1861;50.240;8.596;2023-07-29T01:05:05;19.50;99.90
3690;DHT22;1861;50.240;8.596;2023-07-29T01:07:38;19.50;99.90
3690;DHT22;1861;50.240;8.596;2023-07-29T01:10:13;19.50;99.90
3690;DHT22;1861;50.240;8.596;2023-07-29T01:12:51;19.50;99.90
3690;DHT22;1861;50.240;8.596;2023-07-29T01:15:26;19.50;99.90
3690;DHT22;1861;50.240;8.596;2023-07-29T01:18:02;19.50;99.90
3690;DHT22;1861;50.240;8.596;2023-07-29T01:20:34;19.50;99.90
3690;DHT22;1861;50.240;8.596;2023-07-29T01:23:05;19.50;99.90
3690;DHT22;1861;50.240;8.596;2023-07-29T01:25:36;19.50;99.90
3690;DHT22;1861;50.240;8.596;2023-07-29T01:28:05;19.50;99.90
3690;DHT22;1861;50.240;8.596;2023-07-29T01:30:39;19.50;99.90
3690;DHT22;1861;50.240;8.596;2023-07-29T01:33:13;19.50;99.90
3690;DHT22;1861;50.240;8.596;2023-07-29T01:35:46;19.50;99.90
3690;DHT22;1861;50.240;8.596;2023-07-29T01:38:18;19.50;99.90
3690;DHT22;1861;50.240;8.596;2023-07-29T01:40:49;19.50;99.90
3690;DHT22;1861;50.240;8.596;2023-07-29T01:43:18;19.50;99.90
3690;DHT22;1861;50.240;8.596;2023-07-29T01:45:52;19.50;99.90
3690;DHT22;1861;50.240;8.596;2023-07-29T01:48:20;19.50;99.90
3690;DHT22;1861;50.240;8.596;2023-07-29T01:50:49;19.50;99.90
3690;DHT22;1861;50.240;8.596;2023-07-29T01:53:18;19.50;99.90
3690;DHT22;1861;50.240;8.596;2023-07-29T01:55:47;19.50;99.90
3690;DHT22;1861;50.240;8.596;2023-07-29T01:58:16;19.50;99.90
3690;DHT22;1861;50.240;8.596;2023-07-29T02:00:47;19.50;99.90
3690;DHT22;1861;50.240;8.596;2023-07-29T02:03:15;19.50;99.90
3690;DHT22;1861;50.240;8.596;2023-07-29T02:05:43;19.50;99.90
3690;DHT22;1861;50.240;8.596;2023-07-29T02:08:11;19.50;99.90
3690;DHT22;1861;50.240;8.596;2023-07-29T02:10:40;19.50;99.90
3690;DHT22;1861;50.240;8.596;2023-07-29T02:13:13;19.50;99.90
3690;DHT22;1861;50.240;8.596;2023-07-29T02:15:41;19.50;99.90
3690;DHT22;1861;50.240;8.596;2023-07-29T02:18:09;19.40;99.90
3690;DHT22;1861;50.240;8.596;2023-07-29T02:20:37;19.50;99.90
3690;DHT22;1861;50.240;8.596;2023-07-29T02:23:05;19.50;99.90
3690;DHT22;1861;50.240;8.596;2023-07-29T02:25:35;19.50;99.90
3690;DHT22;1861;50.240;8.596;2023-07-29T02:28:03;19.50;99.90
3690;DHT22;1861;50.240;8.596;2023-07-29T02:30:33;19.50;99.90
3690;DHT22;1861;50.240;8.596;2023-07-29T02:33:01;19.50;99.90
3690;DHT22;1861;50.240;8.596;2023-07-29T02:35:29;19.50;99.90
3690;DHT22;1861;50.240;8.596;2023-07-29T02:37:59;19.50;99.90
3690;DHT22;1861;50.240;8.596;2023-07-29T02:40:27;19.50;99.90
3690;DHT22;1861;50.240;8.596;2023-07-29T02:42:56;19.50;99.90
3690;DHT22;1861;50.240;8.596;2023-07-29T02:45:24;19.50;99.90
3690;DHT22;1861;50.240;8.596;2023-07-29T02:47:53;19.50;99.90
3690;DHT22;1861;50.240;8.596;2023-07-29T02:50:22;19.50;99.90
3690;DHT22;1861;50.240;8.596;2023-07-29T02:52:50;19.50;99.90
3690;DHT22;1861;50.240;8.596;2023-07-29T02:55:18;19.50;99.90
3690;DHT22;1861;50.240;8.596;2023-07-29T02:57:47;19.50;99.90
3690;DHT22;1861;50.240;8.596;2023-07-29T03:00:15;19.50;99.90
3690;DHT22;1861;50.240;8.596;2023-07-29T03:02:43;19.50;99.90
3690;DHT22;1861;50.240;8.596;2023-07-29T03:05:13;19.50;99.90
3690;DHT22;1861;50.240;8.596;2023-07-29T03:07:41;19.50;99.90
3690;DHT22;1861;50.240;8.596;2023-07-29T03:10:10;19.50;99.90
3690;DHT22;1861;50.240;8.596;2023-07-29T03:12:38;19.50;99.90
3690;DHT22;1861;50.240;8.596;2023-07-29T03:15:07;19.50;99.90
3690;DHT22;1861;50.240;8.596;2023-07-29T03:17:36;19.50;99.90
3690;DHT22;1861;50.240;8.596;2023-07-29T03:20:05;19.50;99.90
3690;DHT22;1861;50.240;8.596;2023-07-29T03:22:34;19.50;99.90
3690;DHT22;1861;50.240;8.596;2023-07-29T03:25:03;19.50;99.90
3690;DHT22;1861;50.240;8.596;2023-07-29T03:27:32;19.40;99.90
3690;DHT22;1861;50.240;8.596;2023-07-29T03:30:04;19.50;99.90
3690;DHT22;1861;50.240;8.596;2023-07-29T03:32:32;19.50;99.90
3690;DHT22;1861;50.240;8.596;2023-07-29T03:35:00;19.40;99.90
3690;DHT22;1861;50.240;8.596;2023-07-29T03:37:29;19.50;99.90
3690;DHT22;1861;50.240;8.596;2023-07-29T03:39:58;19.40;99.90
3690;DHT22;1861;50.240;8.596;2023-07-29T03:42:31;19.50;99.90
3690;DHT22;1861;50.240;8.596;2023-07-29T03:44:59;19.50;99.90
3690;DHT22;1861;50.240;8.596;2023-07-29T03:47:27;19.50;99.90
3690;DHT22;1861;50.240;8.596;2023-07-29T03:49:57;19.50;99.90
3690;DHT22;1861;50.240;8.596;2023-07-29T03:52:25;19.50;99.90
3690;DHT22;1861;50.240;8.596;2023-07-29T03:54:53;19.50;99.90
3690;DHT22;1861;50.240;8.596;2023-07-29T03:57:23;19.50;99.90
3690;DHT22;1861;50.240;8.596;2023-07-29T03:59:51;19.50;99.90
3690;DHT22;1861;50.240;8.596;2023-07-29T04:02:19;19.40;99.90
3690;DHT22;1861;50.240;8.596;2023-07-29T04:04:47;19.50;99.90
3690;DHT22;1861;50.240;8.596;2023-07-29T04:07:16;19.40;99.90
3690;DHT22;1861;50.240;8.596;2023-07-29T04:09:44;19.40;99.90
3690;DHT22;1861;50.240;8.596;2023-07-29T04:12:12;19.40;99.90
3690;DHT22;1861;50.240;8.596;2023-07-29T04:14:41;19.50;99.90
3690;DHT22;1861;50.240;8.596;2023-07-29T04:17:10;19.50;99.90
3690;DHT22;1861;50.240;8.596;2023-07-29T04:19:38;19.50;99.90
3690;DHT22;1861;50.240;8.596;2023-07-29T04:22:06;19.40;99.90
3690;DHT22;1861;50.240;8.596;2023-07-29T04:24:34;19.40;99.90
3690;DHT22;1861;50.240;8.596;2023-07-29T04:27:02;19.50;99.90
3690;DHT22;1861;50.240;8.596;2023-07-29T04:29:31;19.50;99.90
3690;DHT22;1861;50.240;8.596;2023-07-29T04:32:01;19.40;99.90
3690;DHT22;1861;50.240;8.596;2023-07-29T04:34:29;19.40;99.90
3690;DHT22;1861;50.240;8.596;2023-07-29T04:36:57;19.40;99.90
3690;DHT22;1861;50.240;8.596;2023-07-29T04:39:26;19.40;99.90
3690;DHT22;1861;50.240;8.596;2023-07-29T04:41:54;19.50;99.90
3690;DHT22;1861;50.240;8.596;2023-07-29T04:44:24;19.50;99.90
3690;DHT22;1861;50.240;8.596;2023-07-29T04:46:52;19.50;99.90
3690;DHT22;1861;50.240;8.596;2023-07-29T04:49:21;19.50;99.90
3690;DHT22;1861;50.240;8.596;2023-07-29T04:51:50;19.50;99.90
3690;DHT22;1861;50.240;8.596;2023-07-29T04:54:18;19.50;99.90
3690;DHT22;1861;50.240;8.596;2023-07-29T04:56:47;19.50;99.90
3690;DHT22;1861;50.240;8.596;2023-07-29T04:59:16;19.50;99.90
3690;DHT22;1861;50.240;8.596;2023-07-29T05:01:45;19.50;99.90
3690;DHT22;1861;50.240;8.596;2023-07-29T05:04:13;19.50;99.90
3690;DHT22;1861;50.240;8.596;2023-07-29T05:06:42;19.50;99.90
3690;DHT22;1861;50.240;8.596;2023-07-29T05:09:14;19.50;99.90
3690;DHT22;1861;50.240;8.596;2023-07-29T05:11:42;19.50;99.90
3690;DHT22;1861;50.240;8.596;2023-07-29T05:14:13;19.50;99.90
3690;DHT22;1861;50.240;8.596;2023-07-29T05:16:41;19.50;99.90
3690;DHT22;1861;50.240;8.596;2023-07-29T05:19:10;19.50;99.90
3690;DHT22;1861;50.240;8.596;2023-07-29T05:21:39;19.50;99.90
3690;DHT22;1861;50.240;8.596;2023-07-29T05:24:09;19.50;99.90
3690;DHT22;1861;50.240;8.596;2023-07-29T05:26:37;19.50;99.90
3690;DHT22;1861;50.240;8.596;2023-07-29T05:29:06;19.50;99.90
3690;DHT22;1861;50.240;8.596;2023-07-29T05:31:34;19.50;99.90
3690;DHT22;1861;50.240;8.596;2023-07-29T05:34:02;19.60;99.90
3690;DHT22;1861;50.240;8.596;2023-07-29T05:36:30;19.60;99.90
3690;DHT22;1861;50.240;8.596;2023-07-29T05:38:58;19.60;99.90
3690;DHT22;1861;50.240;8.596;2023-07-29T05:41:29;19.60;99.90
3690;DHT22;1861;50.240;8.596;2023-07-29T05:43:57;19.60;99.90
3690;DHT22;1861;50.240;8.596;2023-07-29T05:46:25;19.60;99.90
3690;DHT22;1861;50.240;8.596;2023-07-29T05:48:54;19.60;99.90
3690;DHT22;1861;50.240;8.596;2023-07-29T05:51:22;19.60;99.90
3690;DHT22;1861;50.240;8.596;2023-07-29T05:53:50;19.60;99.90
3690;DHT22;1861;50.240;8.596;2023-07-29T05:56:18;19.60;99.90
3690;DHT22;1861;50.240;8.596;2023-07-29T05:58:47;19.60;99.90
3690;DHT22;1861;50.240;8.596;2023-07-29T06:01:17;19.70;99.90
3690;DHT22;1861;50.240;8.596;2023-07-29T06:03:48;19.70;99.90
3690;DHT22;1861;50.240;8.596;2023-07-29T06:06:17;19.70;99.90
3690;DHT22;1861;50.240;8.596;2023-07-29T06:08:45;19.70;99.90
3690;DHT22;1861;50.240;8.596;2023-07-29T06:11:13;19.70;99.90
3690;DHT22;1861;50.240;8.596;2023-07-29T06:13:41;19.70;99.90
3690;DHT22;1861;50.240;8.596;2023-07-29T06:16:10;19.70;99.90
3690;DHT22;1861;50.240;8.596;2023-07-29T06:18:39;19.70;99.90
3690;DHT22;1861;50.240;8.596;2023-07-29T06:21:07;19.70;99.90
3690;DHT22;1861;50.240;8.596;2023-07-29T06:23:38;19.60;99.90
3690;DHT22;1861;50.240;8.596;2023-07-29T06:26:06;19.60;99.90
3690;DHT22;1861;50.240;8.596;2023-07-29T06:28:34;19.60;99.90
3690;DHT22;1861;50.240;8.596;2023-07-29T06:31:02;19.60;99.90
3690;DHT22;1861;50.240;8.596;2023-07-29T06:33:32;19.60;99.90
3690;DHT22;1861;50.240;8.596;2023-07-29T06:36:00;19.60;99.90
3690;DHT22;1861;50.240;8.596;2023-07-29T06:38:28;19.60;99.90
3690;DHT22;1861;50.240;8.596;2023-07-29T06:40:56;19.60;99.90
3690;DHT22;1861;50.240;8.596;2023-07-29T06:43:24;19.60;99.90
3690;DHT22;1861;50.240;8.596;2023-07-29T06:45:52;19.60;99.90
3690;DHT22;1861;50.240;8.596;2023-07-29T06:48:20;19.60;99.90
3690;DHT22;1861;50.240;8.596;2023-07-29T06:50:50;19.60;99.90
3690;DHT22;1861;50.240;8.596;2023-07-29T06:53:19;19.60;99.90
3690;DHT22;1861;50.240;8.596;2023-07-29T06:55:47;19.60;99.90
3690;DHT22;1861;50.240;8.596;2023-07-29T06:58:15;19.60;99.90
3690;DHT22;1861;50.240;8.596;2023-07-29T07:00:43;19.50;99.90
3690;DHT22;1861;50.240;8.596;2023-07-29T07:03:11;19.50;99.90
3690;DHT22;1861;50.240;8.596;2023-07-29T07:05:39;19.50;99.90
3690;DHT22;1861;50.240;8.596;2023-07-29T07:08:08;19.50;99.90
3690;DHT22;1861;50.240;8.596;2023-07-29T07:10:36;19.50;99.90
3690;DHT22;1861;50.240;8.596;2023-07-29T07:13:04;19.50;99.90
3690;DHT22;1861;50.240;8.596;2023-07-29T07:15:33;19.50;99.90
3690;DHT22;1861;50.240;8.596;2023-07-29T07:18:01;19.50;99.90
3690;DHT22;1861;50.240;8.596;2023-07-29T07:20:29;19.50;99.90
3690;DHT22;1861;50.240;8.596;2023-07-29T07:22:57;19.50;99.90
3690;DHT22;1861;50.240;8.596;2023-07-29T07:25:26;19.50;99.90
3690;DHT22;1861;50.240;8.596;2023-07-29T07:27:54;19.50;99.90
3690;DHT22;1861;50.240;8.596;2023-07-29T07:30:23;19.60;99.90
3690;DHT22;1861;50.240;8.596;2023-07-29T07:32:51;19.60;99.90
3690;DHT22;1861;50.240;8.596;2023-07-29T07:35:19;19.60;99.90
3690;DHT22;1861;50.240;8.596;2023-07-29T07:37:47;19.60;99.90
3690;DHT22;1861;50.240;8.596;2023-07-29T07:40:16;19.70;99.90
3690;DHT22;1861;50.240;8.596;2023-07-29T07:42:45;19.70;99.90
3690;DHT22;1861;50.240;8.596;2023-07-29T07:45:13;19.70;99.90
3690;DHT22;1861;50.240;8.596;2023-07-29T07:47:41;19.70;99.90
3690;DHT22;1861;50.240;8.596;2023-07-29T07:50:09;19.70;99.90
3690;DHT22;1861;50.240;8.596;2023-07-29T07:52:38;19.80;99.90
3690;DHT22;1861;50.240;8.596;2023-07-29T07:55:06;19.80;99.90
3690;DHT22;1861;50.240;8.596;2023-07-29T07:57:35;19.80;99.90
3690;DHT22;1861;50.240;8.596;2023-07-29T08:00:06;19.80;99.90
3690;DHT22;1861;50.240;8.596;2023-07-29T08:02:41;19.80;99.90
3690;DHT22;1861;50.240;8.596;2023-07-29T08:05:09;19.80;99.90
3690;DHT22;1861;50.240;8.596;2023-07-29T08:07:38;19.80;99.90
3690;DHT22;1861;50.240;8.596;2023-07-29T08:10:07;19.80;99.90
3690;DHT22;1861;50.240;8.596;2023-07-29T08:12:35;19.80;99.90
3690;DHT22;1861;50.240;8.596;2023-07-29T08:15:05;19.80;99.90
3690;DHT22;1861;50.240;8.596;2023-07-29T08:17:34;19.80;99.90
3690;DHT22;1861;50.240;8.596;2023-07-29T08:20:02;19.90;99.90
3690;DHT22;1861;50.240;8.596;2023-07-29T08:22:30;19.90;99.90
3690;DHT22;1861;50.240;8.596;2023-07-29T08:24:59;19.90;99.90
3690;DHT22;1861;50.240;8.596;2023-07-29T08:27:27;19.90;99.90
3690;DHT22;1861;50.240;8.596;2023-07-29T08:29:55;19.90;99.90
3690;DHT22;1861;50.240;8.596;2023-07-29T08:32:25;19.90;99.90
3690;DHT22;1861;50.240;8.596;2023-07-29T08:34:53;20.00;99.90
3690;DHT22;1861;50.240;8.596;2023-07-29T08:37:21;20.00;99.90
3690;DHT22;1861;50.240;8.596;2023-07-29T08:39:49;20.00;99.90
3690;DHT22;1861;50.240;8.596;2023-07-29T08:42:21;20.00;99.90
3690;DHT22;1861;50.240;8.596;2023-07-29T08:44:51;20.00;99.90
3690;DHT22;1861;50.240;8.596;2023-07-29T08:47:22;20.00;99.90
3690;DHT22;1861;50.240;8.596;2023-07-29T08:49:52;20.10;99.90
3690;DHT22;1861;50.240;8.596;2023-07-29T08:52:22;20.10;99.90
3690;DHT22;1861;50.240;8.596;2023-07-29T08:54:53;20.10;99.90
3690;DHT22;1861;50.240;8.596;2023-07-29T08:57:22;20.10;99.90
3690;DHT22;1861;50.240;8.596;2023-07-29T08:59:51;20.00;99.90
3690;DHT22;1861;50.240;8.596;2023-07-29T09:02:19;20.00;99.90
3690;DHT22;1861;50.240;8.596;2023-07-29T09:04:48;20.10;99.90
3690;DHT22;1861;50.240;8.596;2023-07-29T09:07:18;20.10;99.90
3690;DHT22;1861;50.240;8.596;2023-07-29T09:09:46;20.10;99.90
3690;DHT22;1861;50.240;8.596;2023-07-29T09:12:14;20.10;99.90
3690;DHT22;1861;50.240;8.596;2023-07-29T09:14:43;20.10;99.90
3690;DHT22;1861;50.240;8.596;2023-07-29T09:17:11;20.10;99.90
3690;DHT22;1861;50.240;8.596;2023-07-29T09:19:39;20.10;99.90
3690;DHT22;1861;50.240;8.596;2023-07-29T09:22:18;20.10;99.90
3690;DHT22;1861;50.240;8.596;2023-07-29T09:24:47;20.20;99.90
3690;DHT22;1861;50.240;8.596;2023-07-29T09:27:25;20.20;99.90
3690;DHT22;1861;50.240;8.596;2023-07-29T09:29:55;20.20;99.90
3690;DHT22;1861;50.240;8.596;2023-07-29T09:32:24;20.20;99.90
3690;DHT22;1861;50.240;8.596;2023-07-29T09:34:53;20.20;99.90
3690;DHT22;1861;50.240;8.596;2023-07-29T09:37:23;20.30;99.90
3690;DHT22;1861;50.240;8.596;2023-07-29T09:39:52;20.30;99.90
3690;DHT22;1861;50.240;8.596;2023-07-29T09:42:21;20.30;99.90
3690;DHT22;1861;50.240;8.596;2023-07-29T09:44:50;20.30;99.90
3690;DHT22;1861;50.240;8.596;2023-07-29T09:47:19;20.30;99.90
3690;DHT22;1861;50.240;8.596;2023-07-29T09:49:49;20.30;99.90
3690;DHT22;1861;50.240;8.596;2023-07-29T09:52:18;20.30;99.90
3690;DHT22;1861;50.240;8.596;2023-07-29T09:54:48;20.30;99.90
3690;DHT22;1861;50.240;8.596;2023-07-29T09:57:18;20.30;99.90
3690;DHT22;1861;50.240;8.596;2023-07-29T09:59:53;20.40;99.90
3690;DHT22;1861;50.240;8.596;2023-07-29T10:02:22;20.30;99.90
3690;DHT22;1861;50.240;8.596;2023-07-29T10:04:52;20.40;99.90
3690;DHT22;1861;50.240;8.596;2023-07-29T10:07:21;20.40;99.90
3690;DHT22;1861;50.240;8.596;2023-07-29T10:09:51;20.40;99.90
3690;DHT22;1861;50.240;8.596;2023-07-29T10:12:20;20.40;99.90
3690;DHT22;1861;50.240;8.596;2023-07-29T10:14:50;20.50;99.90
3690;DHT22;1861;50.240;8.596;2023-07-29T10:17:19;20.50;99.90
3690;DHT22;1861;50.240;8.596;2023-07-29T10:19:49;20.50;99.90
3690;DHT22;1861;50.240;8.596;2023-07-29T10:22:20;20.50;99.90
3690;DHT22;1861;50.240;8.596;2023-07-29T10:24:51;20.50;99.90
3690;DHT22;1861;50.240;8.596;2023-07-29T10:27:19;20.50;99.90
3690;DHT22;1861;50.240;8.596;2023-07-29T10:29:49;20.50;99.90
3690;DHT22;1861;50.240;8.596;2023-07-29T10:32:19;20.50;99.90
3690;DHT22;1861;50.240;8.596;2023-07-29T10:34:50;20.50;99.90
3690;DHT22;1861;50.240;8.596;2023-07-29T10:37:19;20.50;99.90
3690;DHT22;1861;50.240;8.596;2023-07-29T10:39:55;20.60;99.90
3690;DHT22;1861;50.240;8.596;2023-07-29T10:42:23;20.70;99.90
3690;DHT22;1861;50.240;8.596;2023-07-29T10:44:52;20.60;99.90
3690;DHT22;1861;50.240;8.596;2023-07-29T10:47:22;20.60;99.90
3690;DHT22;1861;50.240;8.596;2023-07-29T10:49:53;20.60;99.90
3690;DHT22;1861;50.240;8.596;2023-07-29T10:52:30;20.60;99.90
3690;DHT22;1861;50.240;8.596;2023-07-29T10:55:00;20.60;99.90
3690;DHT22;1861;50.240;8.596;2023-07-29T10:57:33;20.60;99.90
3690;DHT22;1861;50.240;8.596;2023-07-29T11:00:03;20.60;99.90
3690;DHT22;1861;50.240;8.596;2023-07-29T11:02:34;20.70;99.90
3690;DHT22;1861;50.240;8.596;2023-07-29T11:05:05;20.80;99.90
3690;DHT22;1861;50.240;8.596;2023-07-29T11:07:43;20.70;99.90
3690;DHT22;1861;50.240;8.596;2023-07-29T11:10:14;20.80;99.90
3690;DHT22;1861;50.240;8.596;2023-07-29T11:12:44;20.90;99.90
3690;DHT22;1861;50.240;8.596;2023-07-29T11:15:18;20.90;99.90
3690;DHT22;1861;50.240;8.596;2023-07-29T11:17:49;21.00;99.90
3690;DHT22;1861;50.240;8.596;2023-07-29T11:20:18;21.00;99.90
3690;DHT22;1861;50.240;8.596;2023-07-29T11:22:46;21.00;99.90
3690;DHT22;1861;50.240;8.596;2023-07-29T11:25:17;21.10;99.90
3690;DHT22;1861;50.240;8.596;2023-07-29T11:27:46;21.00;99.90
3690;DHT22;1861;50.240;8.596;2023-07-29T11:30:14;21.00;99.90
3690;DHT22;1861;50.240;8.596;2023-07-29T11:32:44;21.10;99.90
3690;DHT22;1861;50.240;8.596;2023-07-29T11:35:14;21.20;99.90
3690;DHT22;1861;50.240;8.596;2023-07-29T11:37:44;21.20;99.90
3690;DHT22;1861;50.240;8.596;2023-07-29T11:40:15;21.20;99.90
3690;DHT22;1861;50.240;8.596;2023-07-29T11:42:45;21.20;99.90
3690;DHT22;1861;50.240;8.596;2023-07-29T11:45:14;21.30;99.90
3690;DHT22;1861;50.240;8.596;2023-07-29T11:47:44;21.30;99.90
3690;DHT22;1861;50.240;8.596;2023-07-29T11:50:14;21.30;99.90
3690;DHT22;1861;50.240;8.596;2023-07-29T11:52:43;21.50;99.90
3690;DHT22;1861;50.240;8.596;2023-07-29T11:55:13;21.40;99.90
3690;DHT22;1861;50.240;8.596;2023-07-29T11:57:43;21.20;99.90
3690;DHT22;1861;50.240;8.596;2023-07-29T12:00:12;21.10;99.90
3690;DHT22;1861;50.240;8.596;2023-07-29T12:02:45;21.00;99.90
3690;DHT22;1861;50.240;8.596;2023-07-29T12:05:14;21.00;99.90
3690;DHT22;1861;50.240;8.596;2023-07-29T12:07:44;21.20;99.90
3690;DHT22;1861;50.240;8.596;2023-07-29T12:10:13;21.20;99.90
3690;DHT22;1861;50.240;8.596;2023-07-29T12:12:46;21.10;99.90
3690;DHT22;1861;50.240;8.596;2023-07-29T12:15:23;21.20;99.90
3690;DHT22;1861;50.240;8.596;2023-07-29T12:17:55;21.30;99.90
3690;DHT22;1861;50.240;8.596;2023-07-29T12:20:25;21.40;99.90
3690;DHT22;1861;50.240;8.596;2023-07-29T12:22:56;21.40;99.90
3690;DHT22;1861;50.240;8.596;2023-07-29T12:25:25;21.60;99.90
3690;DHT22;1861;50.240;8.596;2023-07-29T12:27:55;21.60;99.90
3690;DHT22;1861;50.240;8.596;2023-07-29T12:30:24;21.70;99.90
3690;DHT22;1861;50.240;8.596;2023-07-29T12:32:53;21.80;99.90
3690;DHT22;1861;50.240;8.596;2023-07-29T12:35:21;21.90;99.90
3690;DHT22;1861;50.240;8.596;2023-07-29T12:37:58;21.90;99.90
3690;DHT22;1861;50.240;8.596;2023-07-29T12:40:27;22.00;99.90
3690;DHT22;1861;50.240;8.596;2023-07-29T12:42:57;22.00;99.90
3690;DHT22;1861;50.240;8.596;2023-07-29T12:45:25;21.90;99.90
3690;DHT22;1861;50.240;8.596;2023-07-29T12:47:56;21.60;99.90
3690;DHT22;1861;50.240;8.596;2023-07-29T12:50:24;21.40;99.90
3690;DHT22;1861;50.240;8.596;2023-07-29T12:52:52;21.30;99.90
3690;DHT22;1861;50.240;8.596;2023-07-29T12:55:20;21.20;99.90
3690;DHT22;1861;50.240;8.596;2023-07-29T12:57:50;21.20;99.90
3690;DHT22;1861;50.240;8.596;2023-07-29T13:00:20;21.10;99.90
3690;DHT22;1861;50.240;8.596;2023-07-29T13:02:48;21.10;99.90
3690;DHT22;1861;50.240;8.596;2023-07-29T13:05:16;21.00;99.90
3690;DHT22;1861;50.240;8.596;2023-07-29T13:07:44;21.00;99.90
3690;DHT22;1861;50.240;8.596;2023-07-29T13:10:13;21.00;99.90
3690;DHT22;1861;50.240;8.596;2023-07-29T13:12:41;21.00;99.90
3690;DHT22;1861;50.240;8.596;2023-07-29T13:15:10;20.90;99.90
3690;DHT22;1861;50.240;8.596;2023-07-29T13:17:39;20.90;99.90
3690;DHT22;1861;50.240;8.596;2023-07-29T13:20:08;20.90;99.90
3690;DHT22;1861;50.240;8.596;2023-07-29T13:22:36;20.90;99.90
3690;DHT22;1861;50.240;8.596;2023-07-29T13:25:05;21.00;99.90
3690;DHT22;1861;50.240;8.596;2023-07-29T13:27:33;20.90;99.90
3690;DHT22;1861;50.240;8.596;2023-07-29T13:30:01;21.00;99.90
3690;DHT22;1861;50.240;8.596;2023-07-29T13:32:30;21.00;99.90
3690;DHT22;1861;50.240;8.596;2023-07-29T13:34:59;21.00;99.90
3690;DHT22;1861;50.240;8.596;2023-07-29T13:37:27;21.20;99.90
3690;DHT22;1861;50.240;8.596;2023-07-29T13:39:55;21.40;99.90
3690;DHT22;1861;50.240;8.596;2023-07-29T13:42:23;21.50;99.90
3690;DHT22;1861;50.240;8.596;2023-07-29T13:44:51;22.10;99.90
3690;DHT22;1861;50.240;8.596;2023-07-29T13:47:20;23.10;99.90
3690;DHT22;1861;50.240;8.596;2023-07-29T13:49:48;23.80;99.90
3690;DHT22;1861;50.240;8.596;2023-07-29T13:52:17;24.40;99.90
3690;DHT22;1861;50.240;8.596;2023-07-29T13:54:45;24.20;99.90
3690;DHT22;1861;50.240;8.596;2023-07-29T13:57:13;24.00;99.90
3690;DHT22;1861;50.240;8.596;2023-07-29T13:59:41;24.30;99.90
3690;DHT22;1861;50.240;8.596;2023-07-29T14:02:10;24.00;99.90
3690;DHT22;1861;50.240;8.596;2023-07-29T14:04:38;23.00;99.90
3690;DHT22;1861;50.240;8.596;2023-07-29T14:07:06;22.40;99.90
3690;DHT22;1861;50.240;8.596;2023-07-29T14:09:36;22.80;99.90
3690;DHT22;1861;50.240;8.596;2023-07-29T14:12:05;22.60;99.90
3690;DHT22;1861;50.240;8.596;2023-07-29T14:14:33;22.50;99.90
3690;DHT22;1861;50.240;8.596;2023-07-29T14:17:01;22.30;99.90
3690;DHT22;1861;50.240;8.596;2023-07-29T14:19:30;22.20;99.90
3690;DHT22;1861;50.240;8.596;2023-07-29T14:21:58;22.30;99.90
3690;DHT22;1861;50.240;8.596;2023-07-29T14:24:26;22.30;99.90
3690;DHT22;1861;50.240;8.596;2023-07-29T14:26:55;22.40;99.90
3690;DHT22;1861;50.240;8.596;2023-07-29T14:29:23;22.30;99.90
3690;DHT22;1861;50.240;8.596;2023-07-29T14:31:52;22.30;99.90
3690;DHT22;1861;50.240;8.596;2023-07-29T14:34:20;22.20;99.90
3690;DHT22;1861;50.240;8.596;2023-07-29T14:36:48;22.20;99.90
3690;DHT22;1861;50.240;8.596;2023-07-29T14:39:16;22.20;99.90
3690;DHT22;1861;50.240;8.596;2023-07-29T14:41:44;22.10;99.90
3690;DHT22;1861;50.240;8.596;2023-07-29T14:44:14;22.20;99.90
3690;DHT22;1861;50.240;8.596;2023-07-29T14:46:42;22.10;99.90
3690;DHT22;1861;50.240;8.596;2023-07-29T14:49:10;22.10;99.90
3690;DHT22;1861;50.240;8.596;2023-07-29T14:51:39;22.10;99.90
3690;DHT22;1861;50.240;8.596;2023-07-29T14:54:07;22.10;99.90
3690;DHT22;1861;50.240;8.596;2023-07-29T14:56:36;22.10;99.90
3690;DHT22;1861;50.240;8.596;2023-07-29T14:59:05;22.10;99.90
3690;DHT22;1861;50.240;8.596;2023-07-29T15:01:35;22.10;99.90
3690;DHT22;1861;50.240;8.596;2023-07-29T15:04:04;22.00;99.90
3690;DHT22;1861;50.240;8.596;2023-07-29T15:06:32;22.00;99.90
3690;DHT22;1861;50.240;8.596;2023-07-29T15:09:01;22.00;99.90
3690;DHT22;1861;50.240;8.596;2023-07-29T15:11:29;22.00;99.90
3690;DHT22;1861;50.240;8.596;2023-07-29T15:13:59;22.00;99.90
3690;DHT22;1861;50.240;8.596;2023-07-29T15:16:30;22.00;99.90
3690;DHT22;1861;50.240;8.596;2023-07-29T15:19:03;22.00;99.90
3690;DHT22;1861;50.240;8.596;2023-07-29T15:21:31;22.00;99.90
3690;DHT22;1861;50.240;8.596;2023-07-29T15:24:01;22.00;99.90
3690;DHT22;1861;50.240;8.596;2023-07-29T15:26:31;21.90;99.90
3690;DHT22;1861;50.240;8.596;2023-07-29T15:29:00;22.00;99.90
3690;DHT22;1861;50.240;8.596;2023-07-29T15:31:28;21.90;99.90
3690;DHT22;1861;50.240;8.596;2023-07-29T15:33:57;21.80;99.90
3690;DHT22;1861;50.240;8.596;2023-07-29T15:36:26;21.80;99.90
3690;DHT22;1861;50.240;8.596;2023-07-29T15:38:54;21.70;99.90
3690;DHT22;1861;50.240;8.596;2023-07-29T15:41:22;21.70;99.90
3690;DHT22;1861;50.240;8.596;2023-07-29T15:43:51;21.70;99.90
3690;DHT22;1861;50.240;8.596;2023-07-29T15:46:21;21.60;99.90
3690;DHT22;1861;50.240;8.596;2023-07-29T15:48:49;21.60;99.90
3690;DHT22;1861;50.240;8.596;2023-07-29T15:51:17;21.50;99.90
3690;DHT22;1861;50.240;8.596;2023-07-29T15:53:47;21.50;99.90
3690;DHT22;1861;50.240;8.596;2023-07-29T15:56:15;21.50;99.90
3690;DHT22;1861;50.240;8.596;2023-07-29T15:58:43;21.50;99.90
3690;DHT22;1861;50.240;8.596;2023-07-29T16:01:11;21.50;99.90
3690;DHT22;1861;50.240;8.596;2023-07-29T16:03:39;21.50;99.90
3690;DHT22;1861;50.240;8.596;2023-07-29T16:06:08;21.50;99.90
3690;DHT22;1861;50.240;8.596;2023-07-29T16:08:36;21.50;99.90
3690;DHT22;1861;50.240;8.596;2023-07-29T16:11:06;21.60;99.90
3690;DHT22;1861;50.240;8.596;2023-07-29T16:13:34;21.60;99.90